sensor_id;sensor_type;location;lat;lon;timestamp;P1;durP1;ratioP1;P2;durP2;ratioP2
29908;SDS011;36247;51.952;6.146;2023-05-10T00:00:37;11.57;;;9.38;;
29908;SDS011;36247;51.952;6.146;2023-05-10T00:03:02;13.77;;;9.73;;
29908;SDS011;36247;51.952;6.146;2023-05-10T00:05:31;14.65;;;10.20;;
29908;SDS011;36247;51.952;6.146;2023-05-10T00:07:57;14.90;;;11.20;;
29908;SDS011;36247;51.952;6.146;2023-05-10T00:10:22;14.63;;;10.98;;
29908;SDS011;36247;51.952;6.146;2023-05-10T00:12:48;15.10;;;10.80;;
29908;SDS011;36247;51.952;6.146;2023-05-10T00:15:13;15.30;;;11.48;;
29908;SDS011;36247;51.952;6.146;2023-05-10T00:17:40;15.15;;;11.43;;
29908;SDS011;36247;51.952;6.146;2023-05-10T00:20:06;18.00;;;13.10;;
29908;SDS011;36247;51.952;6.146;2023-05-10T00:22:32;16.98;;;12.35;;
29908;SDS011;36247;51.952;6.146;2023-05-10T00:24:58;19.85;;;13.95;;
29908;SDS011;36247;51.952;6.146;2023-05-10T00:27:23;18.92;;;13.27;;
29908;SDS011;36247;51.952;6.146;2023-05-10T00:29:49;20.95;;;14.85;;
29908;SDS011;36247;51.952;6.146;2023-05-10T00:32:15;21.55;;;15.30;;
29908;SDS011;36247;51.952;6.146;2023-05-10T00:34:42;28.88;;;17.13;;
29908;SDS011;36247;51.952;6.146;2023-05-10T00:37:08;25.23;;;15.98;;
29908;SDS011;36247;51.952;6.146;2023-05-10T00:39:34;29.70;;;17.67;;
29908;SDS011;36247;51.952;6.146;2023-05-10T00:42:00;30.75;;;19.30;;
29908;SDS011;36247;51.952;6.146;2023-05-10T00:44:27;35.88;;;21.23;;
29908;SDS011;36247;51.952;6.146;2023-05-10T00:46:52;35.65;;;20.70;;
29908;SDS011;36247;51.952;6.146;2023-05-10T00:49:18;40.33;;;24.00;;
29908;SDS011;36247;51.952;6.146;2023-05-10T00:51:45;44.13;;;24.55;;
29908;SDS011;36247;51.952;6.146;2023-05-10T00:54:11;46.13;;;26.05;;
29908;SDS011;36247;51.952;6.146;2023-05-10T00:56:39;53.88;;;29.70;;
29908;SDS011;36247;51.952;6.146;2023-05-10T00:59:07;52.88;;;29.15;;
29908;SDS011;36247;51.952;6.146;2023-05-10T01:01:35;58.78;;;30.83;;
29908;SDS011;36247;51.952;6.146;2023-05-10T01:04:01;61.08;;;30.38;;
29908;SDS011;36247;51.952;6.146;2023-05-10T01:06:28;65.68;;;33.50;;
29908;SDS011;36247;51.952;6.146;2023-05-10T01:08:53;67.40;;;35.35;;
29908;SDS011;36247;51.952;6.146;2023-05-10T01:11:19;66.70;;;35.13;;
29908;SDS011;36247;51.952;6.146;2023-05-10T01:13:47;71.70;;;35.95;;
29908;SDS011;36247;51.952;6.146;2023-05-10T01:16:18;73.78;;;37.83;;
29908;SDS011;36247;51.952;6.146;2023-05-10T01:18:44;77.15;;;37.65;;
29908;SDS011;36247;51.952;6.146;2023-05-10T01:26:55;76.32;;;38.05;;
29908;SDS011;36247;51.952;6.146;2023-05-10T01:30:19;74.80;;;37.50;;
29908;SDS011;36247;51.952;6.146;2023-05-10T01:35:44;74.30;;;39.25;;
29908;SDS011;36247;51.952;6.146;2023-05-10T01:41:36;80.70;;;39.83;;
29908;SDS011;36247;51.952;6.146;2023-05-10T01:47:17;85.43;;;42.97;;
29908;SDS011;36247;51.952;6.146;2023-05-10T01:50:04;86.95;;;42.90;;
29908;SDS011;36247;51.952;6.146;2023-05-10T01:52:41;92.13;;;44.50;;
29908;SDS011;36247;51.952;6.146;2023-05-10T01:55:11;88.95;;;43.65;;
29908;SDS011;36247;51.952;6.146;2023-05-10T01:57:42;92.30;;;44.30;;
29908;SDS011;36247;51.952;6.146;2023-05-10T02:00:10;89.45;;;44.70;;
29908;SDS011;36247;51.952;6.146;2023-05-10T02:02:44;94.07;;;44.60;;
29908;SDS011;36247;51.952;6.146;2023-05-10T02:05:11;90.25;;;43.88;;
29908;SDS011;36247;51.952;6.146;2023-05-10T02:07:39;89.53;;;42.90;;
29908;SDS011;36247;51.952;6.146;2023-05-10T02:10:06;86.45;;;41.85;;
29908;SDS011;36247;51.952;6.146;2023-05-10T02:12:35;99.55;;;44.78;;
29908;SDS011;36247;51.952;6.146;2023-05-10T02:15:06;96.10;;;44.33;;
29908;SDS011;36247;51.952;6.146;2023-05-10T02:17:35;92.05;;;43.88;;
29908;SDS011;36247;51.952;6.146;2023-05-10T02:20:06;95.00;;;43.55;;
29908;SDS011;36247;51.952;6.146;2023-05-10T02:22:33;100.82;;;45.75;;
29908;SDS011;36247;51.952;6.146;2023-05-10T02:25:02;96.03;;;43.42;;
29908;SDS011;36247;51.952;6.146;2023-05-10T02:27:28;95.65;;;43.50;;
29908;SDS011;36247;51.952;6.146;2023-05-10T02:29:55;86.60;;;42.70;;
29908;SDS011;36247;51.952;6.146;2023-05-10T02:32:22;87.70;;;44.33;;
29908;SDS011;36247;51.952;6.146;2023-05-10T02:34:50;89.35;;;42.20;;
29908;SDS011;36247;51.952;6.146;2023-05-10T02:37:18;85.68;;;41.45;;
29908;SDS011;36247;51.952;6.146;2023-05-10T02:39:49;83.30;;;39.22;;
29908;SDS011;36247;51.952;6.146;2023-05-10T02:42:18;86.63;;;41.75;;
29908;SDS011;36247;51.952;6.146;2023-05-10T02:44:45;83.35;;;40.33;;
29908;SDS011;36247;51.952;6.146;2023-05-10T02:47:14;87.10;;;39.45;;
29908;SDS011;36247;51.952;6.146;2023-05-10T02:49:40;78.75;;;36.58;;
29908;SDS011;36247;51.952;6.146;2023-05-10T02:52:07;77.72;;;39.00;;
29908;SDS011;36247;51.952;6.146;2023-05-10T02:54:39;88.60;;;40.58;;
29908;SDS011;36247;51.952;6.146;2023-05-10T02:57:09;88.95;;;40.28;;
29908;SDS011;36247;51.952;6.146;2023-05-10T02:59:39;86.72;;;37.45;;
29908;SDS011;36247;51.952;6.146;2023-05-10T03:02:05;82.00;;;34.63;;
29908;SDS011;36247;51.952;6.146;2023-05-10T03:04:32;81.88;;;36.30;;
29908;SDS011;36247;51.952;6.146;2023-05-10T03:06:58;78.28;;;37.25;;
29908;SDS011;36247;51.952;6.146;2023-05-10T03:09:24;75.80;;;36.40;;
29908;SDS011;36247;51.952;6.146;2023-05-10T03:18:01;84.13;;;37.22;;
29908;SDS011;36247;51.952;6.146;2023-05-10T03:20:36;82.63;;;39.22;;
29908;SDS011;36247;51.952;6.146;2023-05-10T03:26:00;81.85;;;37.25;;
29908;SDS011;36247;51.952;6.146;2023-05-10T03:28:31;93.50;;;41.10;;
29908;SDS011;36247;51.952;6.146;2023-05-10T03:31:02;81.47;;;41.35;;
29908;SDS011;36247;51.952;6.146;2023-05-10T03:33:33;91.03;;;41.33;;
29908;SDS011;36247;51.952;6.146;2023-05-10T03:35:59;84.07;;;40.10;;
29908;SDS011;36247;51.952;6.146;2023-05-10T03:38:25;96.78;;;44.28;;
29908;SDS011;36247;51.952;6.146;2023-05-10T03:40:51;91.70;;;44.90;;
29908;SDS011;36247;51.952;6.146;2023-05-10T03:43:17;103.18;;;48.40;;
29908;SDS011;36247;51.952;6.146;2023-05-10T03:45:42;90.35;;;44.13;;
29908;SDS011;36247;51.952;6.146;2023-05-10T03:48:08;96.22;;;46.35;;
29908;SDS011;36247;51.952;6.146;2023-05-10T03:50:33;88.40;;;45.50;;
29908;SDS011;36247;51.952;6.146;2023-05-10T03:53:01;93.72;;;46.45;;
29908;SDS011;36247;51.952;6.146;2023-05-10T03:55:27;93.18;;;46.05;;
29908;SDS011;36247;51.952;6.146;2023-05-10T03:57:53;104.65;;;46.28;;
29908;SDS011;36247;51.952;6.146;2023-05-10T04:00:21;103.13;;;46.58;;
29908;SDS011;36247;51.952;6.146;2023-05-10T04:02:49;103.82;;;48.20;;
29908;SDS011;36247;51.952;6.146;2023-05-10T04:05:18;101.43;;;49.15;;
29908;SDS011;36247;51.952;6.146;2023-05-10T04:07:43;106.78;;;49.50;;
29908;SDS011;36247;51.952;6.146;2023-05-10T04:10:10;109.75;;;49.13;;
29908;SDS011;36247;51.952;6.146;2023-05-10T04:12:36;108.35;;;49.80;;
29908;SDS011;36247;51.952;6.146;2023-05-10T04:15:01;107.28;;;46.72;;
29908;SDS011;36247;51.952;6.146;2023-05-10T04:17:29;106.13;;;48.42;;
29908;SDS011;36247;51.952;6.146;2023-05-10T04:19:54;100.75;;;44.13;;
29908;SDS011;36247;51.952;6.146;2023-05-10T04:22:21;99.85;;;44.70;;
29908;SDS011;36247;51.952;6.146;2023-05-10T04:24:46;102.60;;;44.53;;
29908;SDS011;36247;51.952;6.146;2023-05-10T04:27:12;103.20;;;44.17;;
29908;SDS011;36247;51.952;6.146;2023-05-10T04:29:37;98.50;;;42.65;;
29908;SDS011;36247;51.952;6.146;2023-05-10T04:32:06;104.60;;;43.08;;
29908;SDS011;36247;51.952;6.146;2023-05-10T04:34:33;104.28;;;43.13;;
29908;SDS011;36247;51.952;6.146;2023-05-10T04:37:00;101.95;;;44.50;;
29908;SDS011;36247;51.952;6.146;2023-05-10T04:39:26;104.32;;;45.80;;
29908;SDS011;36247;51.952;6.146;2023-05-10T04:41:51;116.95;;;46.65;;
29908;SDS011;36247;51.952;6.146;2023-05-10T04:44:17;117.97;;;46.97;;
29908;SDS011;36247;51.952;6.146;2023-05-10T04:46:43;101.88;;;43.60;;
29908;SDS011;36247;51.952;6.146;2023-05-10T04:49:09;103.70;;;45.70;;
29908;SDS011;36247;51.952;6.146;2023-05-10T04:51:35;100.47;;;45.67;;
29908;SDS011;36247;51.952;6.146;2023-05-10T04:54:01;96.72;;;42.03;;
29908;SDS011;36247;51.952;6.146;2023-05-10T04:56:26;98.07;;;44.83;;
29908;SDS011;36247;51.952;6.146;2023-05-10T04:58:52;106.75;;;46.30;;
29908;SDS011;36247;51.952;6.146;2023-05-10T05:01:17;97.28;;;43.55;;
29908;SDS011;36247;51.952;6.146;2023-05-10T05:03:43;99.57;;;41.15;;
29908;SDS011;36247;51.952;6.146;2023-05-10T05:06:09;111.97;;;46.28;;
29908;SDS011;36247;51.952;6.146;2023-05-10T05:08:35;102.75;;;42.28;;
29908;SDS011;36247;51.952;6.146;2023-05-10T05:11:01;91.72;;;41.95;;
29908;SDS011;36247;51.952;6.146;2023-05-10T05:13:28;92.97;;;40.53;;
29908;SDS011;36247;51.952;6.146;2023-05-10T05:15:53;92.82;;;41.20;;
29908;SDS011;36247;51.952;6.146;2023-05-10T05:18:19;83.45;;;39.28;;
29908;SDS011;36247;51.952;6.146;2023-05-10T05:20:45;94.28;;;41.10;;
29908;SDS011;36247;51.952;6.146;2023-05-10T05:23:10;83.65;;;40.92;;
29908;SDS011;36247;51.952;6.146;2023-05-10T05:25:36;85.00;;;39.47;;
29908;SDS011;36247;51.952;6.146;2023-05-10T05:28:02;84.13;;;40.28;;
29908;SDS011;36247;51.952;6.146;2023-05-10T05:30:27;80.07;;;42.03;;
29908;SDS011;36247;51.952;6.146;2023-05-10T05:32:53;81.88;;;39.38;;
29908;SDS011;36247;51.952;6.146;2023-05-10T05:35:19;83.88;;;39.13;;
29908;SDS011;36247;51.952;6.146;2023-05-10T05:37:45;78.38;;;38.00;;
29908;SDS011;36247;51.952;6.146;2023-05-10T05:40:13;79.95;;;38.78;;
29908;SDS011;36247;51.952;6.146;2023-05-10T05:42:39;81.22;;;39.10;;
29908;SDS011;36247;51.952;6.146;2023-05-10T05:45:07;79.72;;;38.85;;
29908;SDS011;36247;51.952;6.146;2023-05-10T05:47:35;78.70;;;38.15;;
29908;SDS011;36247;51.952;6.146;2023-05-10T05:50:01;75.00;;;37.97;;
29908;SDS011;36247;51.952;6.146;2023-05-10T05:52:28;85.88;;;38.38;;
29908;SDS011;36247;51.952;6.146;2023-05-10T05:54:54;80.20;;;36.70;;
29908;SDS011;36247;51.952;6.146;2023-05-10T05:57:20;79.13;;;37.97;;
29908;SDS011;36247;51.952;6.146;2023-05-10T05:59:45;88.05;;;40.53;;
29908;SDS011;36247;51.952;6.146;2023-05-10T06:02:11;79.57;;;38.63;;
29908;SDS011;36247;51.952;6.146;2023-05-10T06:04:36;81.18;;;37.13;;
29908;SDS011;36247;51.952;6.146;2023-05-10T06:07:02;82.97;;;37.33;;
29908;SDS011;36247;51.952;6.146;2023-05-10T06:09:28;78.90;;;36.38;;
29908;SDS011;36247;51.952;6.146;2023-05-10T06:11:53;99.78;;;39.35;;
29908;SDS011;36247;51.952;6.146;2023-05-10T06:14:22;93.97;;;38.63;;
29908;SDS011;36247;51.952;6.146;2023-05-10T06:16:47;87.38;;;39.42;;
29908;SDS011;36247;51.952;6.146;2023-05-10T06:19:13;94.20;;;38.13;;
29908;SDS011;36247;51.952;6.146;2023-05-10T06:21:39;98.00;;;42.63;;
29908;SDS011;36247;51.952;6.146;2023-05-10T06:24:06;95.97;;;39.20;;
29908;SDS011;36247;51.952;6.146;2023-05-10T06:26:33;88.03;;;40.80;;
29908;SDS011;36247;51.952;6.146;2023-05-10T06:28:58;99.80;;;44.90;;
29908;SDS011;36247;51.952;6.146;2023-05-10T06:31:24;95.22;;;41.35;;
29908;SDS011;36247;51.952;6.146;2023-05-10T06:33:50;93.97;;;40.20;;
29908;SDS011;36247;51.952;6.146;2023-05-10T06:36:15;96.38;;;43.65;;
29908;SDS011;36247;51.952;6.146;2023-05-10T06:38:41;89.82;;;41.05;;
29908;SDS011;36247;51.952;6.146;2023-05-10T06:41:06;94.60;;;40.75;;
29908;SDS011;36247;51.952;6.146;2023-05-10T06:43:33;101.53;;;44.67;;
29908;SDS011;36247;51.952;6.146;2023-05-10T06:45:58;98.18;;;43.13;;
29908;SDS011;36247;51.952;6.146;2023-05-10T06:48:24;90.80;;;44.15;;
29908;SDS011;36247;51.952;6.146;2023-05-10T06:50:49;92.03;;;42.58;;
29908;SDS011;36247;51.952;6.146;2023-05-10T06:53:15;86.43;;;43.08;;
29908;SDS011;36247;51.952;6.146;2023-05-10T06:55:41;83.32;;;41.30;;
29908;SDS011;36247;51.952;6.146;2023-05-10T06:58:06;87.20;;;40.20;;
29908;SDS011;36247;51.952;6.146;2023-05-10T07:00:32;88.18;;;42.78;;
29908;SDS011;36247;51.952;6.146;2023-05-10T07:02:58;87.55;;;43.33;;
29908;SDS011;36247;51.952;6.146;2023-05-10T07:05:23;79.55;;;42.25;;
29908;SDS011;36247;51.952;6.146;2023-05-10T07:07:49;87.22;;;42.97;;
29908;SDS011;36247;51.952;6.146;2023-05-10T07:10:15;84.65;;;42.55;;
29908;SDS011;36247;51.952;6.146;2023-05-10T07:12:40;82.75;;;42.40;;
29908;SDS011;36247;51.952;6.146;2023-05-10T07:15:06;83.70;;;42.83;;
29908;SDS011;36247;51.952;6.146;2023-05-10T07:17:32;84.53;;;38.17;;
29908;SDS011;36247;51.952;6.146;2023-05-10T07:19:58;67.47;;;35.72;;
29908;SDS011;36247;51.952;6.146;2023-05-10T07:22:25;66.57;;;34.65;;
29908;SDS011;36247;51.952;6.146;2023-05-10T07:24:51;65.50;;;33.60;;
29908;SDS011;36247;51.952;6.146;2023-05-10T07:27:18;65.30;;;32.92;;
29908;SDS011;36247;51.952;6.146;2023-05-10T07:29:44;65.35;;;33.30;;
29908;SDS011;36247;51.952;6.146;2023-05-10T07:32:10;69.82;;;33.42;;
29908;SDS011;36247;51.952;6.146;2023-05-10T07:34:36;70.88;;;34.42;;
29908;SDS011;36247;51.952;6.146;2023-05-10T07:37:02;66.03;;;32.22;;
29908;SDS011;36247;51.952;6.146;2023-05-10T07:39:27;72.88;;;36.45;;
29908;SDS011;36247;51.952;6.146;2023-05-10T07:41:53;62.88;;;33.35;;
29908;SDS011;36247;51.952;6.146;2023-05-10T07:44:19;66.05;;;33.08;;
29908;SDS011;36247;51.952;6.146;2023-05-10T07:46:45;71.15;;;34.15;;
29908;SDS011;36247;51.952;6.146;2023-05-10T07:49:12;70.45;;;35.53;;
29908;SDS011;36247;51.952;6.146;2023-05-10T07:51:40;69.75;;;34.17;;
29908;SDS011;36247;51.952;6.146;2023-05-10T07:54:07;73.75;;;37.40;;
29908;SDS011;36247;51.952;6.146;2023-05-10T07:56:33;77.15;;;34.72;;
29908;SDS011;36247;51.952;6.146;2023-05-10T07:59:00;76.55;;;35.47;;
29908;SDS011;36247;51.952;6.146;2023-05-10T08:01:33;67.07;;;35.65;;
29908;SDS011;36247;51.952;6.146;2023-05-10T08:04:01;77.15;;;36.80;;
29908;SDS011;36247;51.952;6.146;2023-05-10T08:06:27;76.63;;;38.40;;
29908;SDS011;36247;51.952;6.146;2023-05-10T08:08:55;82.38;;;38.38;;
29908;SDS011;36247;51.952;6.146;2023-05-10T08:11:20;78.45;;;39.85;;
29908;SDS011;36247;51.952;6.146;2023-05-10T08:13:46;77.05;;;36.63;;
29908;SDS011;36247;51.952;6.146;2023-05-10T08:16:13;80.60;;;40.00;;
29908;SDS011;36247;51.952;6.146;2023-05-10T08:18:39;69.93;;;36.67;;
29908;SDS011;36247;51.952;6.146;2023-05-10T08:21:06;70.63;;;35.60;;
29908;SDS011;36247;51.952;6.146;2023-05-10T08:23:32;70.82;;;35.75;;
29908;SDS011;36247;51.952;6.146;2023-05-10T08:25:58;71.18;;;34.03;;
29908;SDS011;36247;51.952;6.146;2023-05-10T08:28:24;66.47;;;34.30;;
29908;SDS011;36247;51.952;6.146;2023-05-10T08:30:50;65.32;;;33.17;;
29908;SDS011;36247;51.952;6.146;2023-05-10T08:33:17;65.30;;;33.72;;
29908;SDS011;36247;51.952;6.146;2023-05-10T08:35:43;65.95;;;33.63;;
29908;SDS011;36247;51.952;6.146;2023-05-10T08:38:10;64.60;;;32.97;;
29908;SDS011;36247;51.952;6.146;2023-05-10T08:40:38;62.38;;;34.78;;
29908;SDS011;36247;51.952;6.146;2023-05-10T08:43:08;65.35;;;33.58;;
29908;SDS011;36247;51.952;6.146;2023-05-10T08:45:44;64.00;;;34.97;;
29908;SDS011;36247;51.952;6.146;2023-05-10T08:48:11;64.07;;;33.85;;
29908;SDS011;36247;51.952;6.146;2023-05-10T08:50:38;59.22;;;33.05;;
29908;SDS011;36247;51.952;6.146;2023-05-10T08:53:10;62.58;;;36.13;;
29908;SDS011;36247;51.952;6.146;2023-05-10T08:55:38;64.28;;;35.20;;
29908;SDS011;36247;51.952;6.146;2023-05-10T08:58:07;66.72;;;36.40;;
29908;SDS011;36247;51.952;6.146;2023-05-10T09:00:35;65.88;;;35.45;;
29908;SDS011;36247;51.952;6.146;2023-05-10T09:03:03;63.65;;;33.92;;
29908;SDS011;36247;51.952;6.146;2023-05-10T09:05:33;55.05;;;29.90;;
29908;SDS011;36247;51.952;6.146;2023-05-10T09:07:58;52.67;;;29.02;;
29908;SDS011;36247;51.952;6.146;2023-05-10T09:10:26;56.65;;;30.50;;
29908;SDS011;36247;51.952;6.146;2023-05-10T09:12:53;58.97;;;32.20;;
29908;SDS011;36247;51.952;6.146;2023-05-10T09:15:21;52.67;;;30.75;;
29908;SDS011;36247;51.952;6.146;2023-05-10T09:17:47;51.10;;;28.30;;
29908;SDS011;36247;51.952;6.146;2023-05-10T09:20:15;50.92;;;25.77;;
29908;SDS011;36247;51.952;6.146;2023-05-10T09:22:44;43.75;;;24.85;;
29908;SDS011;36247;51.952;6.146;2023-05-10T09:25:12;41.35;;;24.67;;
29908;SDS011;36247;51.952;6.146;2023-05-10T09:27:40;47.30;;;25.63;;
29908;SDS011;36247;51.952;6.146;2023-05-10T09:30:10;55.08;;;27.75;;
29908;SDS011;36247;51.952;6.146;2023-05-10T09:35:07;47.45;;;26.50;;
29908;SDS011;36247;51.952;6.146;2023-05-10T09:37:46;43.42;;;26.45;;
29908;SDS011;36247;51.952;6.146;2023-05-10T09:40:18;42.58;;;24.92;;
29908;SDS011;36247;51.952;6.146;2023-05-10T09:42:59;42.15;;;23.65;;
29908;SDS011;36247;51.952;6.146;2023-05-10T09:45:33;38.15;;;21.42;;
29908;SDS011;36247;51.952;6.146;2023-05-10T09:48:01;37.67;;;21.92;;
29908;SDS011;36247;51.952;6.146;2023-05-10T09:50:28;35.33;;;19.20;;
29908;SDS011;36247;51.952;6.146;2023-05-10T09:52:58;26.02;;;16.00;;
29908;SDS011;36247;51.952;6.146;2023-05-10T09:55:38;24.08;;;15.30;;
29908;SDS011;36247;51.952;6.146;2023-05-10T09:58:06;25.35;;;15.50;;
29908;SDS011;36247;51.952;6.146;2023-05-10T10:00:38;22.38;;;15.32;;
29908;SDS011;36247;51.952;6.146;2023-05-10T10:03:07;20.95;;;13.68;;
29908;SDS011;36247;51.952;6.146;2023-05-10T10:05:39;23.58;;;14.60;;
29908;SDS011;36247;51.952;6.146;2023-05-10T10:08:07;24.58;;;14.00;;
29908;SDS011;36247;51.952;6.146;2023-05-10T10:10:33;19.10;;;13.23;;
29908;SDS011;36247;51.952;6.146;2023-05-10T10:13:00;23.98;;;14.50;;
29908;SDS011;36247;51.952;6.146;2023-05-10T10:15:27;21.30;;;14.38;;
29908;SDS011;36247;51.952;6.146;2023-05-10T10:17:53;20.38;;;12.35;;
29908;SDS011;36247;51.952;6.146;2023-05-10T10:20:20;20.15;;;13.70;;
29908;SDS011;36247;51.952;6.146;2023-05-10T10:22:47;17.48;;;11.57;;
29908;SDS011;36247;51.952;6.146;2023-05-10T10:25:14;16.80;;;10.68;;
29908;SDS011;36247;51.952;6.146;2023-05-10T10:27:49;16.83;;;10.63;;
29908;SDS011;36247;51.952;6.146;2023-05-10T10:30:43;17.90;;;11.65;;
29908;SDS011;36247;51.952;6.146;2023-05-10T10:33:29;17.98;;;10.38;;
29908;SDS011;36247;51.952;6.146;2023-05-10T10:36:07;16.67;;;10.20;;
29908;SDS011;36247;51.952;6.146;2023-05-10T10:38:36;16.40;;;9.70;;
29908;SDS011;36247;51.952;6.146;2023-05-10T10:41:26;17.08;;;10.75;;
29908;SDS011;36247;51.952;6.146;2023-05-10T10:47:08;15.43;;;8.60;;
29908;SDS011;36247;51.952;6.146;2023-05-10T10:55:14;11.65;;;8.68;;
29908;SDS011;36247;51.952;6.146;2023-05-10T10:57:50;12.65;;;8.98;;
29908;SDS011;36247;51.952;6.146;2023-05-10T11:02:46;10.13;;;6.90;;
29908;SDS011;36247;51.952;6.146;2023-05-10T11:07:54;11.20;;;8.68;;
29908;SDS011;36247;51.952;6.146;2023-05-10T11:10:22;14.95;;;10.75;;
29908;SDS011;36247;51.952;6.146;2023-05-10T11:15:36;18.38;;;11.93;;
29908;SDS011;36247;51.952;6.146;2023-05-10T11:23:51;18.65;;;11.35;;
29908;SDS011;36247;51.952;6.146;2023-05-10T11:26:25;14.20;;;10.85;;
29908;SDS011;36247;51.952;6.146;2023-05-10T11:28:55;14.95;;;10.77;;
29908;SDS011;36247;51.952;6.146;2023-05-10T11:31:22;15.02;;;10.80;;
29908;SDS011;36247;51.952;6.146;2023-05-10T11:33:49;15.48;;;10.90;;
29908;SDS011;36247;51.952;6.146;2023-05-10T11:36:35;15.90;;;10.60;;
29908;SDS011;36247;51.952;6.146;2023-05-10T11:39:02;16.35;;;10.52;;
29908;SDS011;36247;51.952;6.146;2023-05-10T11:41:31;15.18;;;11.68;;
29908;SDS011;36247;51.952;6.146;2023-05-10T11:44:00;15.23;;;10.82;;
29908;SDS011;36247;51.952;6.146;2023-05-10T11:46:28;14.57;;;10.77;;
29908;SDS011;36247;51.952;6.146;2023-05-10T11:48:57;17.23;;;11.13;;
29908;SDS011;36247;51.952;6.146;2023-05-10T11:51:27;15.70;;;10.88;;
29908;SDS011;36247;51.952;6.146;2023-05-10T11:53:54;14.23;;;10.38;;
29908;SDS011;36247;51.952;6.146;2023-05-10T11:56:21;17.63;;;12.18;;
29908;SDS011;36247;51.952;6.146;2023-05-10T11:58:52;18.67;;;11.68;;
29908;SDS011;36247;51.952;6.146;2023-05-10T12:01:20;14.00;;;10.05;;
29908;SDS011;36247;51.952;6.146;2023-05-10T12:03:47;14.43;;;10.15;;
29908;SDS011;36247;51.952;6.146;2023-05-10T12:06:14;16.08;;;10.68;;
29908;SDS011;36247;51.952;6.146;2023-05-10T12:08:44;14.82;;;10.65;;
29908;SDS011;36247;51.952;6.146;2023-05-10T12:11:17;15.95;;;10.57;;
29908;SDS011;36247;51.952;6.146;2023-05-10T12:13:44;18.85;;;11.50;;
29908;SDS011;36247;51.952;6.146;2023-05-10T12:16:17;17.30;;;11.23;;
29908;SDS011;36247;51.952;6.146;2023-05-10T12:18:45;15.23;;;11.40;;
29908;SDS011;36247;51.952;6.146;2023-05-10T12:21:13;16.88;;;11.05;;
29908;SDS011;36247;51.952;6.146;2023-05-10T12:23:40;15.07;;;11.52;;
29908;SDS011;36247;51.952;6.146;2023-05-10T12:26:08;16.23;;;11.90;;
29908;SDS011;36247;51.952;6.146;2023-05-10T12:28:36;15.48;;;11.02;;
29908;SDS011;36247;51.952;6.146;2023-05-10T12:31:03;16.88;;;11.63;;
29908;SDS011;36247;51.952;6.146;2023-05-10T12:33:43;14.07;;;10.48;;
29908;SDS011;36247;51.952;6.146;2023-05-10T12:36:11;12.93;;;10.30;;
29908;SDS011;36247;51.952;6.146;2023-05-10T12:38:42;14.77;;;11.20;;
29908;SDS011;36247;51.952;6.146;2023-05-10T12:41:10;15.32;;;11.52;;
29908;SDS011;36247;51.952;6.146;2023-05-10T12:43:37;14.80;;;10.75;;
29908;SDS011;36247;51.952;6.146;2023-05-10T12:48:31;16.48;;;10.18;;
29908;SDS011;36247;51.952;6.146;2023-05-10T12:51:00;17.08;;;11.38;;
29908;SDS011;36247;51.952;6.146;2023-05-10T12:53:28;16.38;;;10.25;;
29908;SDS011;36247;51.952;6.146;2023-05-10T12:55:54;17.90;;;11.32;;
29908;SDS011;36247;51.952;6.146;2023-05-10T12:58:19;21.25;;;12.25;;
29908;SDS011;36247;51.952;6.146;2023-05-10T13:00:45;13.63;;;10.02;;
29908;SDS011;36247;51.952;6.146;2023-05-10T13:03:11;16.23;;;10.38;;
29908;SDS011;36247;51.952;6.146;2023-05-10T13:05:36;14.38;;;9.70;;
29908;SDS011;36247;51.952;6.146;2023-05-10T13:08:03;11.82;;;9.18;;
29908;SDS011;36247;51.952;6.146;2023-05-10T13:10:31;15.18;;;9.70;;
29908;SDS011;36247;51.952;6.146;2023-05-10T13:12:59;10.90;;;8.48;;
29908;SDS011;36247;51.952;6.146;2023-05-10T13:15:25;12.15;;;8.32;;
29908;SDS011;36247;51.952;6.146;2023-05-10T13:17:51;12.07;;;7.55;;
29908;SDS011;36247;51.952;6.146;2023-05-10T13:20:18;10.80;;;8.15;;
29908;SDS011;36247;51.952;6.146;2023-05-10T13:22:43;13.75;;;8.52;;
29908;SDS011;36247;51.952;6.146;2023-05-10T13:25:10;11.05;;;7.38;;
29908;SDS011;36247;51.952;6.146;2023-05-10T13:27:37;8.60;;;6.70;;
29908;SDS011;36247;51.952;6.146;2023-05-10T13:30:04;11.57;;;7.85;;
29908;SDS011;36247;51.952;6.146;2023-05-10T13:32:33;10.75;;;7.85;;
29908;SDS011;36247;51.952;6.146;2023-05-10T13:35:00;11.38;;;8.13;;
29908;SDS011;36247;51.952;6.146;2023-05-10T13:37:25;10.82;;;7.88;;
29908;SDS011;36247;51.952;6.146;2023-05-10T13:39:51;13.70;;;7.18;;
29908;SDS011;36247;51.952;6.146;2023-05-10T13:42:17;10.73;;;8.82;;
29908;SDS011;36247;51.952;6.146;2023-05-10T13:44:43;11.50;;;8.18;;
29908;SDS011;36247;51.952;6.146;2023-05-10T13:47:10;12.20;;;8.32;;
29908;SDS011;36247;51.952;6.146;2023-05-10T13:49:36;10.60;;;8.98;;
29908;SDS011;36247;51.952;6.146;2023-05-10T13:52:02;13.98;;;9.30;;
29908;SDS011;36247;51.952;6.146;2023-05-10T13:54:38;12.38;;;8.25;;
29908;SDS011;36247;51.952;6.146;2023-05-10T13:57:05;11.55;;;8.93;;
29908;SDS011;36247;51.952;6.146;2023-05-10T13:59:32;14.68;;;10.15;;
29908;SDS011;36247;51.952;6.146;2023-05-10T14:02:00;13.38;;;9.00;;
29908;SDS011;36247;51.952;6.146;2023-05-10T14:04:30;12.70;;;8.68;;
29908;SDS011;36247;51.952;6.146;2023-05-10T14:06:56;12.05;;;9.60;;
29908;SDS011;36247;51.952;6.146;2023-05-10T14:09:22;11.95;;;9.00;;
29908;SDS011;36247;51.952;6.146;2023-05-10T14:11:50;17.33;;;11.07;;
29908;SDS011;36247;51.952;6.146;2023-05-10T14:14:16;12.77;;;9.20;;
29908;SDS011;36247;51.952;6.146;2023-05-10T14:16:43;13.45;;;9.27;;
29908;SDS011;36247;51.952;6.146;2023-05-10T14:19:10;12.40;;;8.82;;
29908;SDS011;36247;51.952;6.146;2023-05-10T14:21:36;13.05;;;9.27;;
29908;SDS011;36247;51.952;6.146;2023-05-10T14:24:02;11.40;;;9.00;;
29908;SDS011;36247;51.952;6.146;2023-05-10T14:26:30;16.50;;;9.20;;
29908;SDS011;36247;51.952;6.146;2023-05-10T14:28:56;14.15;;;9.75;;
29908;SDS011;36247;51.952;6.146;2023-05-10T14:31:22;15.80;;;11.10;;
29908;SDS011;36247;51.952;6.146;2023-05-10T14:33:50;13.60;;;9.95;;
29908;SDS011;36247;51.952;6.146;2023-05-10T14:36:15;15.30;;;11.27;;
29908;SDS011;36247;51.952;6.146;2023-05-10T14:38:43;17.15;;;12.25;;
29908;SDS011;36247;51.952;6.146;2023-05-10T14:41:10;15.82;;;11.27;;
29908;SDS011;36247;51.952;6.146;2023-05-10T14:43:40;16.15;;;11.63;;
29908;SDS011;36247;51.952;6.146;2023-05-10T14:46:06;16.10;;;12.13;;
29908;SDS011;36247;51.952;6.146;2023-05-10T14:48:32;14.98;;;11.35;;
29908;SDS011;36247;51.952;6.146;2023-05-10T14:50:58;16.10;;;11.23;;
29908;SDS011;36247;51.952;6.146;2023-05-10T14:53:24;14.93;;;10.80;;
29908;SDS011;36247;51.952;6.146;2023-05-10T14:55:49;16.60;;;11.38;;
29908;SDS011;36247;51.952;6.146;2023-05-10T14:58:16;14.52;;;11.02;;
29908;SDS011;36247;51.952;6.146;2023-05-10T15:00:43;16.77;;;11.82;;
29908;SDS011;36247;51.952;6.146;2023-05-10T15:03:10;13.98;;;10.88;;
29908;SDS011;36247;51.952;6.146;2023-05-10T15:05:36;15.50;;;11.48;;
29908;SDS011;36247;51.952;6.146;2023-05-10T15:08:03;15.20;;;12.52;;
29908;SDS011;36247;51.952;6.146;2023-05-10T15:10:32;16.10;;;14.35;;
29908;SDS011;36247;51.952;6.146;2023-05-10T15:12:58;16.98;;;14.15;;
29908;SDS011;36247;51.952;6.146;2023-05-10T15:15:24;20.17;;;14.65;;